sensor_id;sensor_type;location;lat;lon;timestamp;P1;durP1;ratioP1;P2;durP2;ratioP2
24143;SDS011;12307;50.828;6.080;2023-06-22T00:02:17;2.20;;;2.00;;
24143;SDS011;12307;50.828;6.080;2023-06-22T00:04:43;2.50;;;2.08;;
24143;SDS011;12307;50.828;6.080;2023-06-22T00:07:08;2.33;;;2.15;;
24143;SDS011;12307;50.828;6.080;2023-06-22T00:09:34;2.40;;;2.20;;
24143;SDS011;12307;50.828;6.080;2023-06-22T00:12:01;2.78;;;2.50;;
24143;SDS011;12307;50.828;6.080;2023-06-22T00:14:27;2.03;;;1.92;;
24143;SDS011;12307;50.828;6.080;2023-06-22T00:16:53;2.25;;;2.05;;
24143;SDS011;12307;50.828;6.080;2023-06-22T00:19:20;2.20;;;2.00;;
24143;SDS011;12307;50.828;6.080;2023-06-22T00:21:46;2.30;;;2.10;;
24143;SDS011;12307;50.828;6.080;2023-06-22T00:24:12;2.50;;;2.30;;
24143;SDS011;12307;50.828;6.080;2023-06-22T00:26:38;2.30;;;2.10;;
24143;SDS011;12307;50.828;6.080;2023-06-22T00:29:05;2.55;;;2.35;;
24143;SDS011;12307;50.828;6.080;2023-06-22T00:31:30;2.40;;;2.20;;
24143;SDS011;12307;50.828;6.080;2023-06-22T00:33:56;2.35;;;2.15;;
24143;SDS011;12307;50.828;6.080;2023-06-22T00:36:22;2.60;;;2.40;;
24143;SDS011;12307;50.828;6.080;2023-06-22T00:38:48;2.50;;;2.30;;
24143;SDS011;12307;50.828;6.080;2023-06-22T00:41:15;2.53;;;2.33;;
24143;SDS011;12307;50.828;6.080;2023-06-22T00:43:41;2.42;;;2.22;;
24143;SDS011;12307;50.828;6.080;2023-06-22T00:46:08;2.40;;;2.20;;
24143;SDS011;12307;50.828;6.080;2023-06-22T00:48:34;2.45;;;2.25;;
24143;SDS011;12307;50.828;6.080;2023-06-22T00:51:02;1.85;;;1.75;;
24143;SDS011;12307;50.828;6.080;2023-06-22T00:53:28;2.63;;;2.40;;
24143;SDS011;12307;50.828;6.080;2023-06-22T00:55:53;2.50;;;2.30;;
24143;SDS011;12307;50.828;6.080;2023-06-22T00:58:21;2.53;;;2.33;;
24143;SDS011;12307;50.828;6.080;2023-06-22T01:00:47;2.38;;;2.17;;
24143;SDS011;12307;50.828;6.080;2023-06-22T01:03:14;2.10;;;1.90;;
24143;SDS011;12307;50.828;6.080;2023-06-22T01:05:41;2.45;;;2.25;;
24143;SDS011;12307;50.828;6.080;2023-06-22T01:08:14;2.40;;;2.20;;
24143;SDS011;12307;50.828;6.080;2023-06-22T01:10:48;2.67;;;2.47;;
24143;SDS011;12307;50.828;6.080;2023-06-22T01:13:33;2.50;;;2.30;;
24143;SDS011;12307;50.828;6.080;2023-06-22T01:16:03;2.35;;;2.15;;
24143;SDS011;12307;50.828;6.080;2023-06-22T01:18:34;2.33;;;2.13;;
24143;SDS011;12307;50.828;6.080;2023-06-22T01:21:02;2.50;;;2.30;;
24143;SDS011;12307;50.828;6.080;2023-06-22T01:23:36;2.30;;;2.10;;
24143;SDS011;12307;50.828;6.080;2023-06-22T01:26:17;2.05;;;1.88;;
24143;SDS011;12307;50.828;6.080;2023-06-22T01:28:48;2.08;;;1.98;;
24143;SDS011;12307;50.828;6.080;2023-06-22T01:31:16;2.45;;;2.25;;
24143;SDS011;12307;50.828;6.080;2023-06-22T01:33:44;2.40;;;2.20;;
24143;SDS011;12307;50.828;6.080;2023-06-22T01:36:11;2.45;;;2.25;;
24143;SDS011;12307;50.828;6.080;2023-06-22T01:38:39;2.50;;;2.30;;
24143;SDS011;12307;50.828;6.080;2023-06-22T01:41:05;2.28;;;2.10;;
24143;SDS011;12307;50.828;6.080;2023-06-22T01:43:31;2.13;;;2.03;;
24143;SDS011;12307;50.828;6.080;2023-06-22T01:46:00;2.30;;;2.10;;
24143;SDS011;12307;50.828;6.080;2023-06-22T01:48:27;2.50;;;2.30;;
24143;SDS011;12307;50.828;6.080;2023-06-22T01:50:53;2.45;;;2.25;;
24143;SDS011;12307;50.828;6.080;2023-06-22T01:53:20;2.25;;;2.10;;
24143;SDS011;12307;50.828;6.080;2023-06-22T01:55:46;2.00;;;1.90;;
24143;SDS011;12307;50.828;6.080;2023-06-22T01:58:12;2.30;;;2.10;;
24143;SDS011;12307;50.828;6.080;2023-06-22T02:00:38;2.28;;;2.08;;
24143;SDS011;12307;50.828;6.080;2023-06-22T02:03:10;1.90;;;1.80;;
24143;SDS011;12307;50.828;6.080;2023-06-22T02:05:42;2.10;;;1.90;;
24143;SDS011;12307;50.828;6.080;2023-06-22T02:08:15;2.20;;;2.00;;
24143;SDS011;12307;50.828;6.080;2023-06-22T02:10:45;2.30;;;2.10;;
24143;SDS011;12307;50.828;6.080;2023-06-22T02:13:13;2.13;;;2.00;;
24143;SDS011;12307;50.828;6.080;2023-06-22T02:15:40;2.40;;;2.20;;
24143;SDS011;12307;50.828;6.080;2023-06-22T02:18:07;2.40;;;2.20;;
24143;SDS011;12307;50.828;6.080;2023-06-22T02:20:36;2.40;;;2.20;;
24143;SDS011;12307;50.828;6.080;2023-06-22T02:23:02;2.25;;;2.05;;
24143;SDS011;12307;50.828;6.080;2023-06-22T02:25:27;2.20;;;2.00;;
24143;SDS011;12307;50.828;6.080;2023-06-22T02:27:53;2.22;;;2.03;;
24143;SDS011;12307;50.828;6.080;2023-06-22T02:30:19;2.22;;;2.03;;
24143;SDS011;12307;50.828;6.080;2023-06-22T02:32:44;2.17;;;2.00;;
24143;SDS011;12307;50.828;6.080;2023-06-22T02:35:11;2.30;;;2.10;;
24143;SDS011;12307;50.828;6.080;2023-06-22T02:37:37;2.30;;;2.10;;
24143;SDS011;12307;50.828;6.080;2023-06-22T02:40:07;2.40;;;2.20;;
24143;SDS011;12307;50.828;6.080;2023-06-22T02:42:36;2.20;;;2.00;;
24143;SDS011;12307;50.828;6.080;2023-06-22T02:45:02;2.17;;;1.95;;
24143;SDS011;12307;50.828;6.080;2023-06-22T02:47:28;2.38;;;2.17;;
24143;SDS011;12307;50.828;6.080;2023-06-22T02:49:53;2.33;;;2.13;;
24143;SDS011;12307;50.828;6.080;2023-06-22T02:52:21;2.30;;;2.10;;
24143;SDS011;12307;50.828;6.080;2023-06-22T02:54:46;2.10;;;2.00;;
24143;SDS011;12307;50.828;6.080;2023-06-22T02:57:12;2.25;;;2.05;;
24143;SDS011;12307;50.828;6.080;2023-06-22T02:59:39;2.15;;;2.05;;
24143;SDS011;12307;50.828;6.080;2023-06-22T03:02:05;2.67;;;2.10;;
24143;SDS011;12307;50.828;6.080;2023-06-22T03:04:31;2.35;;;2.15;;
24143;SDS011;12307;50.828;6.080;2023-06-22T03:06:57;1.98;;;1.80;;
24143;SDS011;12307;50.828;6.080;2023-06-22T03:09:27;2.13;;;2.03;;
24143;SDS011;12307;50.828;6.080;2023-06-22T03:11:53;2.00;;;1.90;;
24143;SDS011;12307;50.828;6.080;2023-06-22T03:14:19;2.28;;;2.08;;
24143;SDS011;12307;50.828;6.080;2023-06-22T03:16:44;2.40;;;2.20;;
24143;SDS011;12307;50.828;6.080;2023-06-22T03:19:10;2.30;;;2.10;;
24143;SDS011;12307;50.828;6.080;2023-06-22T03:21:37;2.25;;;2.05;;
24143;SDS011;12307;50.828;6.080;2023-06-22T03:24:06;2.40;;;2.17;;
24143;SDS011;12307;50.828;6.080;2023-06-22T03:26:33;1.98;;;1.83;;
24143;SDS011;12307;50.828;6.080;2023-06-22T03:28:59;2.42;;;2.22;;
24143;SDS011;12307;50.828;6.080;2023-06-22T03:31:25;2.28;;;2.08;;
24143;SDS011;12307;50.828;6.080;2023-06-22T03:33:51;2.00;;;1.90;;
24143;SDS011;12307;50.828;6.080;2023-06-22T03:36:17;1.92;;;1.83;;
24143;SDS011;12307;50.828;6.080;2023-06-22T03:38:47;2.20;;;2.00;;
24143;SDS011;12307;50.828;6.080;2023-06-22T03:41:14;2.10;;;2.00;;
24143;SDS011;12307;50.828;6.080;2023-06-22T03:43:41;2.00;;;1.80;;
24143;SDS011;12307;50.828;6.080;2023-06-22T03:46:07;2.10;;;2.00;;
24143;SDS011;12307;50.828;6.080;2023-06-22T03:48:33;2.17;;;1.98;;
24143;SDS011;12307;50.828;6.080;2023-06-22T03:50:59;1.98;;;1.88;;
24143;SDS011;12307;50.828;6.080;2023-06-22T03:53:26;2.38;;;2.17;;
24143;SDS011;12307;50.828;6.080;2023-06-22T03:55:52;2.10;;;2.00;;
24143;SDS011;12307;50.828;6.080;2023-06-22T03:58:18;2.50;;;2.30;;
24143;SDS011;12307;50.828;6.080;2023-06-22T04:00:47;2.03;;;1.92;;
24143;SDS011;12307;50.828;6.080;2023-06-22T04:03:13;1.98;;;1.88;;
24143;SDS011;12307;50.828;6.080;2023-06-22T04:05:39;2.05;;;1.85;;
24143;SDS011;12307;50.828;6.080;2023-06-22T04:08:05;2.13;;;1.95;;
24143;SDS011;12307;50.828;6.080;2023-06-22T04:10:31;2.13;;;1.98;;
24143;SDS011;12307;50.828;6.080;2023-06-22T04:12:57;2.05;;;1.90;;
24143;SDS011;12307;50.828;6.080;2023-06-22T04:15:23;1.95;;;1.85;;
24143;SDS011;12307;50.828;6.080;2023-06-22T04:17:50;2.10;;;1.95;;
24143;SDS011;12307;50.828;6.080;2023-06-22T04:20:15;2.40;;;2.20;;
24143;SDS011;12307;50.828;6.080;2023-06-22T04:22:41;2.35;;;2.15;;
24143;SDS011;12307;50.828;6.080;2023-06-22T04:25:07;2.10;;;2.00;;
24143;SDS011;12307;50.828;6.080;2023-06-22T04:27:33;2.50;;;2.30;;
24143;SDS011;12307;50.828;6.080;2023-06-22T04:30:02;2.10;;;2.00;;
24143;SDS011;12307;50.828;6.080;2023-06-22T04:32:28;1.92;;;1.83;;
24143;SDS011;12307;50.828;6.080;2023-06-22T04:34:55;2.13;;;1.98;;
24143;SDS011;12307;50.828;6.080;2023-06-22T04:37:21;2.30;;;2.10;;
24143;SDS011;12307;50.828;6.080;2023-06-22T04:39:48;2.08;;;1.92;;
24143;SDS011;12307;50.828;6.080;2023-06-22T04:42:14;2.08;;;1.90;;
24143;SDS011;12307;50.828;6.080;2023-06-22T04:44:39;2.00;;;1.90;;
24143;SDS011;12307;50.828;6.080;2023-06-22T04:47:06;2.17;;;2.05;;
24143;SDS011;12307;50.828;6.080;2023-06-22T04:49:33;2.10;;;1.90;;
24143;SDS011;12307;50.828;6.080;2023-06-22T04:52:04;2.30;;;2.10;;
24143;SDS011;12307;50.828;6.080;2023-06-22T04:54:30;2.00;;;1.80;;
24143;SDS011;12307;50.828;6.080;2023-06-22T04:56:59;2.20;;;2.00;;
24143;SDS011;12307;50.828;6.080;2023-06-22T04:59:26;2.08;;;1.98;;
24143;SDS011;12307;50.828;6.080;2023-06-22T05:01:55;1.90;;;1.80;;
24143;SDS011;12307;50.828;6.080;2023-06-22T05:04:21;1.80;;;1.70;;
24143;SDS011;12307;50.828;6.080;2023-06-22T05:06:48;2.15;;;1.95;;
24143;SDS011;12307;50.828;6.080;2023-06-22T05:09:15;1.77;;;1.67;;
24143;SDS011;12307;50.828;6.080;2023-06-22T05:11:42;1.70;;;1.60;;
24143;SDS011;12307;50.828;6.080;2023-06-22T05:14:08;1.75;;;1.65;;
24143;SDS011;12307;50.828;6.080;2023-06-22T05:16:34;2.15;;;1.98;;
24143;SDS011;12307;50.828;6.080;2023-06-22T05:18:59;2.17;;;2.00;;
24143;SDS011;12307;50.828;6.080;2023-06-22T05:21:28;2.10;;;2.00;;
24143;SDS011;12307;50.828;6.080;2023-06-22T05:23:55;2.00;;;1.90;;
24143;SDS011;12307;50.828;6.080;2023-06-22T05:26:26;2.08;;;1.90;;
24143;SDS011;12307;50.828;6.080;2023-06-22T05:28:52;1.90;;;1.80;;
24143;SDS011;12307;50.828;6.080;2023-06-22T05:31:18;1.88;;;1.77;;
24143;SDS011;12307;50.828;6.080;2023-06-22T05:33:45;1.98;;;1.80;;
24143;SDS011;12307;50.828;6.080;2023-06-22T05:36:11;1.60;;;1.50;;
24143;SDS011;12307;50.828;6.080;2023-06-22T05:38:38;2.00;;;1.90;;
24143;SDS011;12307;50.828;6.080;2023-06-22T05:41:04;1.85;;;1.75;;
24143;SDS011;12307;50.828;6.080;2023-06-22T05:43:32;2.00;;;1.90;;
24143;SDS011;12307;50.828;6.080;2023-06-22T05:45:57;2.20;;;2.00;;
24143;SDS011;12307;50.828;6.080;2023-06-22T05:48:24;2.00;;;1.90;;
24143;SDS011;12307;50.828;6.080;2023-06-22T05:50:50;1.75;;;1.65;;
24143;SDS011;12307;50.828;6.080;2023-06-22T05:53:15;1.70;;;1.60;;
24143;SDS011;12307;50.828;6.080;2023-06-22T05:55:41;1.80;;;1.70;;
24143;SDS011;12307;50.828;6.080;2023-06-22T05:58:07;1.92;;;1.83;;
24143;SDS011;12307;50.828;6.080;2023-06-22T06:00:34;1.63;;;1.52;;
24143;SDS011;12307;50.828;6.080;2023-06-22T06:03:00;1.75;;;1.65;;
24143;SDS011;12307;50.828;6.080;2023-06-22T06:05:28;1.90;;;1.80;;
24143;SDS011;12307;50.828;6.080;2023-06-22T06:07:54;2.13;;;2.00;;
24143;SDS011;12307;50.828;6.080;2023-06-22T06:10:20;1.90;;;1.80;;
24143;SDS011;12307;50.828;6.080;2023-06-22T06:12:45;1.80;;;1.70;;
24143;SDS011;12307;50.828;6.080;2023-06-22T06:15:11;2.08;;;1.88;;
24143;SDS011;12307;50.828;6.080;2023-06-22T06:17:45;1.90;;;1.80;;
24143;SDS011;12307;50.828;6.080;2023-06-22T06:20:11;1.83;;;1.73;;
24143;SDS011;12307;50.828;6.080;2023-06-22T06:22:37;2.00;;;1.90;;
24143;SDS011;12307;50.828;6.080;2023-06-22T06:25:03;1.98;;;1.88;;
24143;SDS011;12307;50.828;6.080;2023-06-22T06:27:29;2.28;;;2.08;;
24143;SDS011;12307;50.828;6.080;2023-06-22T06:29:56;1.90;;;1.80;;
24143;SDS011;12307;50.828;6.080;2023-06-22T06:32:22;1.95;;;1.85;;
24143;SDS011;12307;50.828;6.080;2023-06-22T06:34:49;2.28;;;2.08;;
24143;SDS011;12307;50.828;6.080;2023-06-22T06:37:15;1.70;;;1.60;;
24143;SDS011;12307;50.828;6.080;2023-06-22T06:39:41;1.85;;;1.75;;
24143;SDS011;12307;50.828;6.080;2023-06-22T06:42:07;1.88;;;1.77;;
24143;SDS011;12307;50.828;6.080;2023-06-22T06:44:33;2.13;;;2.00;;
24143;SDS011;12307;50.828;6.080;2023-06-22T06:46:58;1.70;;;1.60;;
24143;SDS011;12307;50.828;6.080;2023-06-22T06:49:24;1.73;;;1.63;;
24143;SDS011;12307;50.828;6.080;2023-06-22T06:51:51;2.08;;;1.90;;
24143;SDS011;12307;50.828;6.080;2023-06-22T06:54:17;1.58;;;1.48;;
24143;SDS011;12307;50.828;6.080;2023-06-22T06:56:45;1.70;;;1.60;;
24143;SDS011;12307;50.828;6.080;2023-06-22T06:59:13;1.70;;;1.60;;
24143;SDS011;12307;50.828;6.080;2023-06-22T07:01:38;1.83;;;1.73;;
24143;SDS011;12307;50.828;6.080;2023-06-22T07:04:04;1.83;;;1.73;;
24143;SDS011;12307;50.828;6.080;2023-06-22T07:06:30;1.88;;;1.77;;
24143;SDS011;12307;50.828;6.080;2023-06-22T07:08:58;1.80;;;1.70;;
24143;SDS011;12307;50.828;6.080;2023-06-22T07:11:24;1.88;;;1.77;;
24143;SDS011;12307;50.828;6.080;2023-06-22T07:13:50;1.73;;;1.63;;
24143;SDS011;12307;50.828;6.080;2023-06-22T07:16:16;2.22;;;1.95;;
24143;SDS011;12307;50.828;6.080;2023-06-22T07:18:42;2.22;;;2.03;;
24143;SDS011;12307;50.828;6.080;2023-06-22T07:21:07;2.13;;;1.92;;
24143;SDS011;12307;50.828;6.080;2023-06-22T07:23:33;2.40;;;2.00;;
24143;SDS011;12307;50.828;6.080;2023-06-22T07:26:00;4.30;;;2.33;;
24143;SDS011;12307;50.828;6.080;2023-06-22T07:28:31;2.50;;;2.30;;
24143;SDS011;12307;50.828;6.080;2023-06-22T07:31:01;3.15;;;2.85;;
24143;SDS011;12307;50.828;6.080;2023-06-22T07:33:28;3.42;;;3.13;;
24143;SDS011;12307;50.828;6.080;2023-06-22T07:35:53;3.75;;;3.05;;
24143;SDS011;12307;50.828;6.080;2023-06-22T07:38:19;4.10;;;3.63;;
24143;SDS011;12307;50.828;6.080;2023-06-22T07:40:45;3.72;;;3.33;;
24143;SDS011;12307;50.828;6.080;2023-06-22T07:43:12;4.43;;;3.90;;
24143;SDS011;12307;50.828;6.080;2023-06-22T07:45:37;4.93;;;3.65;;
24143;SDS011;12307;50.828;6.080;2023-06-22T07:48:05;5.50;;;3.90;;
24143;SDS011;12307;50.828;6.080;2023-06-22T07:50:30;4.90;;;4.28;;
24143;SDS011;12307;50.828;6.080;2023-06-22T07:52:56;4.30;;;3.90;;
24143;SDS011;12307;50.828;6.080;2023-06-22T07:55:22;4.40;;;3.63;;
24143;SDS011;12307;50.828;6.080;2023-06-22T07:57:48;5.90;;;4.82;;
24143;SDS011;12307;50.828;6.080;2023-06-22T08:00:18;5.82;;;4.57;;
24143;SDS011;12307;50.828;6.080;2023-06-22T08:02:45;5.65;;;4.25;;
24143;SDS011;12307;50.828;6.080;2023-06-22T08:05:11;8.10;;;5.00;;
24143;SDS011;12307;50.828;6.080;2023-06-22T08:07:38;7.43;;;5.15;;
24143;SDS011;12307;50.828;6.080;2023-06-22T08:10:04;5.63;;;5.00;;
24143;SDS011;12307;50.828;6.080;2023-06-22T08:12:31;6.53;;;5.15;;
24143;SDS011;12307;50.828;6.080;2023-06-22T08:14:57;5.18;;;4.05;;
24143;SDS011;12307;50.828;6.080;2023-06-22T08:17:24;5.00;;;4.32;;
24143;SDS011;12307;50.828;6.080;2023-06-22T08:19:50;6.55;;;4.35;;
24143;SDS011;12307;50.828;6.080;2023-06-22T08:22:15;4.63;;;4.13;;
24143;SDS011;12307;50.828;6.080;2023-06-22T08:24:42;5.93;;;4.57;;
24143;SDS011;12307;50.828;6.080;2023-06-22T08:27:07;5.53;;;5.03;;
24143;SDS011;12307;50.828;6.080;2023-06-22T08:29:34;6.32;;;4.57;;
24143;SDS011;12307;50.828;6.080;2023-06-22T08:32:00;5.70;;;4.60;;
24143;SDS011;12307;50.828;6.080;2023-06-22T08:34:27;6.93;;;5.22;;
24143;SDS011;12307;50.828;6.080;2023-06-22T08:36:53;5.22;;;4.75;;
24143;SDS011;12307;50.828;6.080;2023-06-22T08:39:19;5.57;;;4.97;;
24143;SDS011;12307;50.828;6.080;2023-06-22T08:41:45;5.18;;;4.65;;
24143;SDS011;12307;50.828;6.080;2023-06-22T08:44:11;6.43;;;5.10;;
24143;SDS011;12307;50.828;6.080;2023-06-22T08:46:37;5.78;;;5.18;;
24143;SDS011;12307;50.828;6.080;2023-06-22T08:49:04;5.03;;;4.53;;
24143;SDS011;12307;50.828;6.080;2023-06-22T08:51:31;5.88;;;5.03;;
24143;SDS011;12307;50.828;6.080;2023-06-22T08:53:57;7.13;;;5.13;;
24143;SDS011;12307;50.828;6.080;2023-06-22T08:56:22;5.82;;;5.32;;
24143;SDS011;12307;50.828;6.080;2023-06-22T08:58:48;6.00;;;5.40;;
24143;SDS011;12307;50.828;6.080;2023-06-22T09:01:14;6.05;;;5.38;;
24143;SDS011;12307;50.828;6.080;2023-06-22T09:03:40;4.90;;;4.53;;
24143;SDS011;12307;50.828;6.080;2023-06-22T09:06:06;5.57;;;5.05;;
24143;SDS011;12307;50.828;6.080;2023-06-22T09:08:35;5.45;;;5.05;;
24143;SDS011;12307;50.828;6.080;2023-06-22T09:11:01;5.88;;;5.28;;
24143;SDS011;12307;50.828;6.080;2023-06-22T09:13:27;7.05;;;5.88;;
24143;SDS011;12307;50.828;6.080;2023-06-22T09:15:54;6.95;;;6.28;;
24143;SDS011;12307;50.828;6.080;2023-06-22T09:18:20;7.72;;;6.20;;
24143;SDS011;12307;50.828;6.080;2023-06-22T09:20:45;8.02;;;6.75;;
24143;SDS011;12307;50.828;6.080;2023-06-22T09:23:11;7.18;;;6.25;;
24143;SDS011;12307;50.828;6.080;2023-06-22T09:25:38;6.97;;;6.10;;
24143;SDS011;12307;50.828;6.080;2023-06-22T09:28:05;8.45;;;7.40;;
24143;SDS011;12307;50.828;6.080;2023-06-22T09:30:31;7.78;;;5.70;;
24143;SDS011;12307;50.828;6.080;2023-06-22T09:32:56;6.70;;;6.10;;
24143;SDS011;12307;50.828;6.080;2023-06-22T09:35:22;6.57;;;5.97;;
24143;SDS011;12307;50.828;6.080;2023-06-22T09:37:48;6.45;;;5.82;;
24143;SDS011;12307;50.828;6.080;2023-06-22T09:40:13;7.40;;;6.65;;
24143;SDS011;12307;50.828;6.080;2023-06-22T09:42:43;8.13;;;6.78;;
24143;SDS011;12307;50.828;6.080;2023-06-22T09:45:09;10.18;;;7.78;;
24143;SDS011;12307;50.828;6.080;2023-06-22T09:47:35;7.82;;;7.03;;
24143;SDS011;12307;50.828;6.080;2023-06-22T09:50:01;7.57;;;6.45;;
24143;SDS011;12307;50.828;6.080;2023-06-22T09:52:27;8.00;;;6.82;;
24143;SDS011;12307;50.828;6.080;2023-06-22T09:54:53;6.68;;;6.00;;
24143;SDS011;12307;50.828;6.080;2023-06-22T09:57:19;7.55;;;6.50;;
24143;SDS011;12307;50.828;6.080;2023-06-22T09:59:46;7.45;;;6.75;;
24143;SDS011;12307;50.828;6.080;2023-06-22T10:02:12;6.93;;;6.22;;
24143;SDS011;12307;50.828;6.080;2023-06-22T10:04:38;8.15;;;6.30;;
24143;SDS011;12307;50.828;6.080;2023-06-22T10:07:05;6.85;;;6.25;;
24143;SDS011;12307;50.828;6.080;2023-06-22T10:09:31;7.70;;;6.18;;
24143;SDS011;12307;50.828;6.080;2023-06-22T10:11:57;7.35;;;6.60;;
24143;SDS011;12307;50.828;6.080;2023-06-22T10:14:22;8.40;;;7.53;;
24143;SDS011;12307;50.828;6.080;2023-06-22T10:16:51;8.95;;;7.55;;
24143;SDS011;12307;50.828;6.080;2023-06-22T10:19:17;9.07;;;7.35;;
24143;SDS011;12307;50.828;6.080;2023-06-22T10:21:43;7.97;;;7.03;;
24143;SDS011;12307;50.828;6.080;2023-06-22T10:24:09;7.60;;;6.75;;
24143;SDS011;12307;50.828;6.080;2023-06-22T10:26:35;7.55;;;6.82;;
24143;SDS011;12307;50.828;6.080;2023-06-22T10:29:01;7.45;;;6.75;;
24143;SDS011;12307;50.828;6.080;2023-06-22T10:31:27;7.65;;;6.85;;
24143;SDS011;12307;50.828;6.080;2023-06-22T10:33:55;9.65;;;8.65;;
24143;SDS011;12307;50.828;6.080;2023-06-22T10:36:21;9.60;;;8.07;;
24143;SDS011;12307;50.828;6.080;2023-06-22T10:38:47;8.15;;;7.35;;
24143;SDS011;12307;50.828;6.080;2023-06-22T10:41:12;9.48;;;8.48;;
24143;SDS011;12307;50.828;6.080;2023-06-22T10:43:38;9.75;;;7.97;;
24143;SDS011;12307;50.828;6.080;2023-06-22T10:46:04;10.57;;;8.95;;
24143;SDS011;12307;50.828;6.080;2023-06-22T10:48:31;10.05;;;8.60;;
24143;SDS011;12307;50.828;6.080;2023-06-22T10:50:58;9.48;;;8.25;;
24143;SDS011;12307;50.828;6.080;2023-06-22T10:53:24;10.02;;;9.02;;
24143;SDS011;12307;50.828;6.080;2023-06-22T10:55:49;10.25;;;9.20;;
24143;SDS011;12307;50.828;6.080;2023-06-22T10:58:17;11.25;;;10.00;;
24143;SDS011;12307;50.828;6.080;2023-06-22T11:00:43;10.88;;;9.73;;
24143;SDS011;12307;50.828;6.080;2023-06-22T11:03:08;11.88;;;10.38;;
24143;SDS011;12307;50.828;6.080;2023-06-22T11:05:34;10.95;;;9.75;;
24143;SDS011;12307;50.828;6.080;2023-06-22T11:08:01;11.30;;;10.20;;
24143;SDS011;12307;50.828;6.080;2023-06-22T11:10:27;12.20;;;10.88;;
24143;SDS011;12307;50.828;6.080;2023-06-22T11:12:53;11.55;;;9.05;;
24143;SDS011;12307;50.828;6.080;2023-06-22T11:15:18;9.40;;;8.45;;
24143;SDS011;12307;50.828;6.080;2023-06-22T11:17:44;11.85;;;9.95;;
24143;SDS011;12307;50.828;6.080;2023-06-22T11:20:10;11.40;;;10.20;;
24143;SDS011;12307;50.828;6.080;2023-06-22T11:22:37;11.85;;;10.68;;
24143;SDS011;12307;50.828;6.080;2023-06-22T11:25:06;12.77;;;9.93;;
24143;SDS011;12307;50.828;6.080;2023-06-22T11:27:32;9.77;;;8.88;;
24143;SDS011;12307;50.828;6.080;2023-06-22T11:29:58;10.57;;;9.48;;
24143;SDS011;12307;50.828;6.080;2023-06-22T11:32:24;12.85;;;10.20;;
24143;SDS011;12307;50.828;6.080;2023-06-22T11:34:49;10.23;;;9.23;;
24143;SDS011;12307;50.828;6.080;2023-06-22T11:37:15;9.90;;;8.93;;
24143;SDS011;12307;50.828;6.080;2023-06-22T11:39:41;10.65;;;9.55;;
24143;SDS011;12307;50.828;6.080;2023-06-22T11:42:08;10.40;;;9.27;;
24143;SDS011;12307;50.828;6.080;2023-06-22T11:44:34;10.75;;;9.70;;
24143;SDS011;12307;50.828;6.080;2023-06-22T11:47:00;10.43;;;9.43;;
24143;SDS011;12307;50.828;6.080;2023-06-22T11:49:28;9.82;;;8.90;;
24143;SDS011;12307;50.828;6.080;2023-06-22T11:51:54;10.70;;;9.65;;
24143;SDS011;12307;50.828;6.080;2023-06-22T11:54:20;8.98;;;8.18;;
24143;SDS011;12307;50.828;6.080;2023-06-22T11:56:46;9.15;;;8.23;;
24143;SDS011;12307;50.828;6.080;2023-06-22T11:59:13;9.55;;;8.65;;
24143;SDS011;12307;50.828;6.080;2023-06-22T12:01:39;10.05;;;9.07;;
24143;SDS011;12307;50.828;6.080;2023-06-22T12:04:04;10.13;;;9.02;;
24143;SDS011;12307;50.828;6.080;2023-06-22T12:06:30;8.93;;;8.13;;
24143;SDS011;12307;50.828;6.080;2023-06-22T12:08:56;8.77;;;7.97;;
24143;SDS011;12307;50.828;6.080;2023-06-22T12:11:24;8.73;;;7.93;;
24143;SDS011;12307;50.828;6.080;2023-06-22T12:13:50;8.70;;;7.90;;
24143;SDS011;12307;50.828;6.080;2023-06-22T12:16:17;8.15;;;7.45;;
24143;SDS011;12307;50.828;6.080;2023-06-22T12:18:42;8.63;;;7.82;;
24143;SDS011;12307;50.828;6.080;2023-06-22T12:21:08;7.72;;;6.97;;
24143;SDS011;12307;50.828;6.080;2023-06-22T12:23:34;7.57;;;6.88;;
24143;SDS011;12307;50.828;6.080;2023-06-22T12:25:59;7.80;;;7.07;;
24143;SDS011;12307;50.828;6.080;2023-06-22T12:28:26;7.65;;;6.95;;
24143;SDS011;12307;50.828;6.080;2023-06-22T12:30:52;8.02;;;7.32;;
24143;SDS011;12307;50.828;6.080;2023-06-22T12:33:19;7.63;;;6.95;;
24143;SDS011;12307;50.828;6.080;2023-06-22T12:35:45;7.82;;;7.07;;
24143;SDS011;12307;50.828;6.080;2023-06-22T12:38:11;7.97;;;7.25;;
24143;SDS011;12307;50.828;6.080;2023-06-22T12:40:36;7.63;;;6.93;;
24143;SDS011;12307;50.828;6.080;2023-06-22T12:43:02;7.57;;;6.88;;
24143;SDS011;12307;50.828;6.080;2023-06-22T12:45:28;8.20;;;7.50;;
24143;SDS011;12307;50.828;6.080;2023-06-22T12:47:56;7.30;;;6.65;;
24143;SDS011;12307;50.828;6.080;2023-06-22T12:50:23;7.75;;;7.05;;
24143;SDS011;12307;50.828;6.080;2023-06-22T12:52:49;7.78;;;7.07;;
24143;SDS011;12307;50.828;6.080;2023-06-22T12:55:15;7.72;;;7.00;;
24143;SDS011;12307;50.828;6.080;2023-06-22T12:57:40;7.82;;;7.13;;
24143;SDS011;12307;50.828;6.080;2023-06-22T13:00:07;7.32;;;6.63;;
24143;SDS011;12307;50.828;6.080;2023-06-22T13:02:35;7.45;;;6.75;;
24143;SDS011;12307;50.828;6.080;2023-06-22T13:05:01;7.05;;;6.45;;
24143;SDS011;12307;50.828;6.080;2023-06-22T13:07:28;7.35;;;6.65;;
24143;SDS011;12307;50.828;6.080;2023-06-22T13:09:54;7.90;;;7.10;;
24143;SDS011;12307;50.828;6.080;2023-06-22T13:12:20;7.88;;;7.18;;
24143;SDS011;12307;50.828;6.080;2023-06-22T13:14:46;7.50;;;6.80;;
24143;SDS011;12307;50.828;6.080;2023-06-22T13:17:12;7.82;;;7.10;;
24143;SDS011;12307;50.828;6.080;2023-06-22T13:19:38;7.18;;;6.57;;
24143;SDS011;12307;50.828;6.080;2023-06-22T13:22:04;8.02;;;7.25;;
24143;SDS011;12307;50.828;6.080;2023-06-22T13:24:31;8.10;;;7.30;;
24143;SDS011;12307;50.828;6.080;2023-06-22T13:26:57;7.95;;;7.07;;
24143;SDS011;12307;50.828;6.080;2023-06-22T13:29:23;8.05;;;7.25;;
24143;SDS011;12307;50.828;6.080;2023-06-22T13:31:48;7.93;;;7.15;;
24143;SDS011;12307;50.828;6.080;2023-06-22T13:34:15;8.00;;;7.30;;
24143;SDS011;12307;50.828;6.080;2023-06-22T13:36:40;8.32;;;7.53;;
24143;SDS011;12307;50.828;6.080;2023-06-22T13:39:06;8.65;;;7.85;;
24143;SDS011;12307;50.828;6.080;2023-06-22T13:41:33;10.07;;;8.10;;
24143;SDS011;12307;50.828;6.080;2023-06-22T13:43:59;8.20;;;7.40;;
24143;SDS011;12307;50.828;6.080;2023-06-22T13:46:24;8.35;;;7.57;;
24143;SDS011;12307;50.828;6.080;2023-06-22T13:48:50;8.70;;;7.80;;
24143;SDS011;12307;50.828;6.080;2023-06-22T13:51:16;8.75;;;7.85;;
24143;SDS011;12307;50.828;6.080;2023-06-22T13:53:42;8.23;;;7.43;;
24143;SDS011;12307;50.828;6.080;2023-06-22T13:56:07;8.70;;;7.80;;
24143;SDS011;12307;50.828;6.080;2023-06-22T13:58:34;10.25;;;9.10;;
24143;SDS011;12307;50.828;6.080;2023-06-22T14:01:00;9.40;;;8.13;;
24143;SDS011;12307;50.828;6.080;2023-06-22T14:03:26;10.13;;;8.80;;
24143;SDS011;12307;50.828;6.080;2023-06-22T14:05:51;10.20;;;8.65;;
24143;SDS011;12307;50.828;6.080;2023-06-22T14:08:20;9.52;;;8.52;;
24143;SDS011;12307;50.828;6.080;2023-06-22T14:10:48;10.00;;;9.00;;
24143;SDS011;12307;50.828;6.080;2023-06-22T14:13:14;11.38;;;10.27;;
24143;SDS011;12307;50.828;6.080;2023-06-22T14:15:41;10.73;;;9.57;;
24143;SDS011;12307;50.828;6.080;2023-06-22T14:18:07;9.45;;;8.23;;
24143;SDS011;12307;50.828;6.080;2023-06-22T14:20:33;9.05;;;8.15;;
24143;SDS011;12307;50.828;6.080;2023-06-22T14:22:59;8.00;;;7.20;;
24143;SDS011;12307;50.828;6.080;2023-06-22T14:25:24;8.55;;;7.75;;
24143;SDS011;12307;50.828;6.080;2023-06-22T14:27:50;7.85;;;7.05;;
24143;SDS011;12307;50.828;6.080;2023-06-22T14:30:16;7.85;;;7.15;;
24143;SDS011;12307;50.828;6.080;2023-06-22T14:32:44;7.45;;;6.75;;
24143;SDS011;12307;50.828;6.080;2023-06-22T14:35:10;7.90;;;7.20;;
24143;SDS011;12307;50.828;6.080;2023-06-22T14:37:35;7.35;;;6.65;;
24143;SDS011;12307;50.828;6.080;2023-06-22T14:40:01;8.10;;;6.55;;
24143;SDS011;12307;50.828;6.080;2023-06-22T14:42:27;7.15;;;6.45;;